Time;durP1;ratioP1;P1;durP2;ratioP2;P2;SDS_P1;SDS_P2;PMS_P1;PMS_P2;Temp;Humidity;BMP_temperature;BMP_pressure;BME280_temperature;BME280_humidity;BME280_pressure;Samples;Min_cycle;Max_cycle;Signal;HPM_P1;HPM_P2
2021/04/09 00:00:29;;;;;;;6.10;4.10;;;5.50;64.70;;;;;;2064241;28;20031;-82
2021/04/09 00:01:30;;;;;;;7.97;4.32;;;5.50;64.70;;;;;;2065194;28;20026;-82
2021/04/09 00:02:31;;;;;;;6.95;4.03;;;5.40;64.70;;;;;;2073690;28;20021;-82
2021/04/09 00:03:33;;;;;;;6.57;4.13;;;5.50;64.80;;;;;;2064793;28;20038;-82
2021/04/09 00:04:33;;;;;;;7.00;4.20;;;5.50;64.80;;;;;;2064393;28;20485;-82
2021/04/09 00:05:34;;;;;;;5.85;4.03;;;5.50;64.80;;;;;;2059479;28;20061;-82
2021/04/09 00:06:35;;;;;;;6.40;4.00;;;5.50;64.80;;;;;;2065184;28;20113;-83
2021/04/09 00:07:35;;;;;;;7.22;4.25;;;5.50;64.80;;;;;;2065145;28;20479;-83
2021/04/09 00:08:36;;;;;;;8.32;4.38;;;5.50;64.90;;;;;;2065231;28;20132;-83
2021/04/09 00:09:36;;;;;;;8.13;4.50;;;5.50;64.90;;;;;;2073262;28;20030;-82
2021/04/09 00:10:37;;;;;;;6.90;4.00;;;5.40;64.90;;;;;;2070274;28;20121;-82
2021/04/09 00:11:40;;;;;;;6.70;4.32;;;5.50;65.00;;;;;;2081229;28;20025;-83
2021/04/09 00:12:41;;;;;;;6.78;4.28;;;5.40;64.90;;;;;;2096685;28;20453;-83
2021/04/09 00:13:42;;;;;;;7.18;4.45;;;5.50;64.90;;;;;;2088888;28;20115;-83
2021/04/09 00:14:43;;;;;;;7.40;4.50;;;5.50;65.00;;;;;;2081032;28;20041;-83
2021/04/09 00:15:43;;;;;;;6.25;4.30;;;5.40;64.90;;;;;;2080542;28;20045;-83
2021/04/09 00:16:44;;;;;;;8.82;4.75;;;5.40;64.90;;;;;;2067291;28;20077;-83
2021/04/09 00:17:45;;;;;;;8.15;4.82;;;5.50;64.90;;;;;;2049140;28;20490;-82
2021/04/09 00:18:45;;;;;;;8.40;4.60;;;5.50;64.90;;;;;;2064813;28;20385;-82
2021/04/09 00:19:46;;;;;;;8.07;4.50;;;5.50;64.90;;;;;;2081643;28;20120;-83
2021/04/09 00:20:47;;;;;;;7.93;4.38;;;5.50;64.90;;;;;;2081309;28;20179;-83
2021/04/09 00:21:47;;;;;;;6.07;4.20;;;5.50;65.00;;;;;;2073102;28;20030;-81
2021/04/09 00:22:48;;;;;;;7.13;4.25;;;5.40;64.90;;;;;;2065228;28;20027;-83
2021/04/09 00:23:49;;;;;;;6.80;4.20;;;5.40;65.60;;;;;;2073600;28;20113;-82
2021/04/09 00:24:50;;;;;;;6.22;4.10;;;5.50;65.00;;;;;;2065068;28;20038;-83
2021/04/09 00:25:51;;;;;;;6.28;4.20;;;5.40;65.00;;;;;;2065005;28;20019;-83
2021/04/09 00:26:51;;;;;;;7.43;4.38;;;5.40;65.00;;;;;;2071984;28;20057;-82
2021/04/09 00:27:52;;;;;;;6.88;4.18;;;5.40;65.10;;;;;;2078752;28;20041;-82
2021/04/09 00:28:53;;;;;;;7.45;4.15;;;5.40;65.10;;;;;;2065115;28;20027;-82
2021/04/09 00:29:53;;;;;;;7.20;4.10;;;5.40;65.10;;;;;;2057087;28;20027;-83
2021/04/09 00:30:54;;;;;;;6.68;4.20;;;5.40;65.20;;;;;;2065070;28;20464;-82
2021/04/09 00:31:54;;;;;;;7.20;4.07;;;5.40;65.20;;;;;;2073024;28;20392;-83
2021/04/09 00:32:55;;;;;;;7.30;4.45;;;5.40;65.20;;;;;;2081015;28;20061;-83
2021/04/09 00:33:56;;;;;;;7.80;4.43;;;5.40;65.30;;;;;;2071911;28;20026;-82
2021/04/09 00:34:56;;;;;;;8.07;4.80;;;5.40;65.30;;;;;;2071093;28;20045;-82
2021/04/09 00:35:57;;;;;;;7.93;4.65;;;5.40;65.30;;;;;;2080839;28;20029;-82
2021/04/09 00:36:57;;;;;;;7.78;4.35;;;5.40;65.30;;;;;;2064745;28;20061;-82
2021/04/09 00:37:58;;;;;;;7.38;4.55;;;5.40;65.40;;;;;;2076996;28;20048;-83
2021/04/09 00:38:59;;;;;;;7.72;4.30;;;5.40;65.40;;;;;;2081210;28;20041;-83
2021/04/09 00:39:59;;;;;;;7.70;4.32;;;5.40;65.40;;;;;;2080060;28;20022;-82
2021/04/09 00:41:00;;;;;;;7.18;4.28;;;5.30;65.40;;;;;;2071422;28;20034;-81
2021/04/09 00:42:01;;;;;;;7.38;4.50;;;5.30;65.50;;;;;;2056927;28;20130;-82
2021/04/09 00:43:03;;;;;;;7.78;4.65;;;5.30;65.50;;;;;;2048740;28;20117;-82
2021/04/09 00:44:09;;;;;;;6.43;4.22;;;5.30;65.50;;;;;;2069252;28;20388;-82
2021/04/09 00:45:10;;;;;;;7.47;4.82;;;5.30;65.60;;;;;;2081773;28;20057;-82
2021/04/09 00:46:12;;;;;;;7.60;4.43;;;5.30;65.70;;;;;;2075636;28;20467;-82
2021/04/09 00:47:13;;;;;;;6.88;4.55;;;5.30;66.30;;;;;;2089282;28;20057;-81
2021/04/09 00:48:14;;;;;;;8.32;4.68;;;5.30;65.70;;;;;;2083725;28;20026;-82
2021/04/09 00:49:14;;;;;;;8.32;4.50;;;5.30;65.80;;;;;;2072995;28;20030;-82
2021/04/09 00:50:15;;;;;;;7.07;4.38;;;5.30;65.80;;;;;;2081258;28;20064;-82
2021/04/09 00:51:17;;;;;;;8.55;4.53;;;5.30;65.80;;;;;;2073293;28;20519;-82
2021/04/09 00:52:18;;;;;;;7.15;4.57;;;5.30;65.80;;;;;;2083045;28;20063;-82
2021/04/09 00:53:20;;;;;;;7.50;4.60;;;5.20;66.30;;;;;;2072861;28;20117;-82
2021/04/09 00:54:20;;;;;;;7.30;4.80;;;5.30;65.80;;;;;;2073012;28;20057;-83
2021/04/09 00:55:21;;;;;;;8.05;4.40;;;5.20;65.80;;;;;;2072952;28;20459;-83
2021/04/09 00:56:26;;;;;;;7.22;4.80;;;5.30;65.80;;;;;;2061247;28;20031;-82
2021/04/09 00:57:28;;;;;;;7.00;4.38;;;5.20;65.80;;;;;;2072671;28;20484;-82
2021/04/09 00:58:29;;;;;;;6.70;4.22;;;5.20;65.80;;;;;;2086696;28;20033;-82
2021/04/09 00:59:31;;;;;;;8.38;4.63;;;5.20;65.80;;;;;;2081105;28;20033;-83
2021/04/09 01:00:32;;;;;;;8.13;4.63;;;5.30;66.00;;;;;;2064578;28;20018;-83
2021/04/09 01:01:33;;;;;;;7.00;4.70;;;5.20;65.90;;;;;;2072515;28;20030;-83
2021/04/09 01:02:33;;;;;;;7.50;4.40;;;5.20;65.90;;;;;;2072625;28;20114;-83
2021/04/09 01:03:35;;;;;;;6.60;4.38;;;5.20;66.00;;;;;;2067279;28;20049;-83
2021/04/09 01:04:36;;;;;;;6.18;4.18;;;5.20;66.00;;;;;;2072285;28;20550;-83
2021/04/09 01:05:38;;;;;;;7.65;4.75;;;5.20;66.00;;;;;;2072869;28;20111;-83
2021/04/09 01:06:38;;;;;;;6.95;4.75;;;5.20;66.00;;;;;;2071946;28;20018;-83
2021/04/09 01:07:40;;;;;;;6.85;4.25;;;5.20;66.10;;;;;;2072372;28;20105;-83
2021/04/09 01:08:40;;;;;;;7.43;4.50;;;5.20;66.10;;;;;;2072575;28;20034;-82
2021/04/09 01:09:41;;;;;;;7.95;4.57;;;5.20;66.10;;;;;;2077510;28;20603;-82
2021/04/09 01:10:42;;;;;;;6.97;4.43;;;5.20;66.10;;;;;;2072804;28;20034;-82
2021/04/09 01:11:42;;;;;;;8.20;4.57;;;5.20;66.20;;;;;;2073039;28;20033;-83
2021/04/09 01:12:46;;;;;;;7.45;4.32;;;5.20;66.20;;;;;;2080606;28;20446;-83
2021/04/09 01:13:47;;;;;;;6.95;4.80;;;5.20;66.20;;;;;;2057018;28;20583;-82
2021/04/09 01:14:48;;;;;;;6.97;4.50;;;5.20;66.20;;;;;;2064643;28;20093;-83
2021/04/09 01:15:51;;;;;;;7.88;4.72;;;5.20;66.20;;;;;;2084555;28;20052;-83
2021/04/09 01:17:09;;;;;;;7.43;4.30;;;5.20;66.20;;;;;;2080726;28;20036;-83
2021/04/09 01:18:32;;;;;;;8.07;4.55;;;5.20;66.20;;;;;;2083047;28;20072;-82
2021/04/09 01:19:51;;;;;;;8.60;4.95;;;5.20;66.20;;;;;;2080831;28;20025;-83
2021/04/09 01:21:12;;;;;;;6.95;4.45;;;5.20;66.20;;;;;;2082611;28;20022;-83
2021/04/09 01:22:13;;;;;;;6.75;4.43;;;5.10;66.20;;;;;;2080906;28;20021;-82
2021/04/09 01:23:24;;;;;;;6.45;4.25;;;5.20;66.20;;;;;;2063734;28;20508;-82
2021/04/09 01:24:43;;;;;;;7.65;4.28;;;5.10;66.20;;;;;;2067501;28;20038;-83
2021/04/09 01:26:17;;;;;;;7.63;4.60;;;5.10;66.20;;;;;;2081245;28;20087;-83
2021/04/09 01:27:55;;;;;;;7.10;4.15;;;5.10;66.30;;;;;;2081949;28;20042;-82
2021/04/09 01:29:13;;;;;;;7.07;4.47;;;5.10;66.30;;;;;;2080770;28;20092;-83
2021/04/09 01:30:41;;;;;;;6.63;4.45;;;5.10;66.20;;;;;;2083116;28;20029;-82
2021/04/09 01:31:57;;;;;;;7.18;4.05;;;5.10;66.20;;;;;;2077066;28;20502;-82
2021/04/09 01:33:00;;;;;;;7.55;4.47;;;5.10;66.20;;;;;;2076511;28;20037;-82
2021/04/09 01:34:03;;;;;;;6.20;3.85;;;5.10;66.30;;;;;;2064843;28;20155;-83
2021/04/09 01:35:08;;;;;;;7.63;4.18;;;5.10;66.30;;;;;;2073299;28;20046;-82
2021/04/09 01:36:14;;;;;;;7.28;4.78;;;5.10;66.30;;;;;;2076379;28;20027;-82
2021/04/09 01:37:23;;;;;;;7.35;4.57;;;5.10;66.40;;;;;;2073142;28;20459;-82
2021/04/09 01:38:28;;;;;;;14.18;5.00;;;5.10;67.00;;;;;;2080212;28;20009;-82
2021/04/09 01:39:36;;;;;;;7.18;4.40;;;5.10;66.40;;;;;;2080436;28;20067;-83
2021/04/09 01:40:41;;;;;;;6.55;4.05;;;5.10;66.40;;;;;;2073580;28;20033;-83
2021/04/09 01:41:43;;;;;;;7.95;4.63;;;5.10;66.40;;;;;;2073657;28;20014;-82
2021/04/09 01:42:48;;;;;;;9.20;4.40;;;5.10;66.40;;;;;;2088520;28;20544;-82
2021/04/09 01:43:50;;;;;;;7.72;4.55;;;5.10;66.50;;;;;;2081200;28;20025;-82
2021/04/09 01:44:53;;;;;;;7.05;4.32;;;5.10;66.50;;;;;;2066862;28;20018;-83
2021/04/09 01:45:56;;;;;;;7.68;4.97;;;5.10;66.50;;;;;;2072397;28;20121;-82
2021/04/09 01:46:58;;;;;;;9.02;4.85;;;5.10;66.60;;;;;;2072306;28;20053;-83
2021/04/09 01:48:01;;;;;;;7.60;4.70;;;5.10;66.60;;;;;;2072559;28;20551;-83
2021/04/09 01:49:03;;;;;;;7.90;4.72;;;5.10;66.70;;;;;;2080807;28;20099;-83
2021/04/09 01:50:08;;;;;;;7.13;4.65;;;5.10;66.70;;;;;;2080340;28;20022;-83
2021/04/09 01:51:11;;;;;;;9.10;4.88;;;5.10;66.70;;;;;;2082242;28;20033;-83
2021/04/09 01:52:12;;;;;;;8.10;4.78;;;5.10;66.70;;;;;;2072537;28;20084;-83
2021/04/09 01:53:15;;;;;;;6.78;4.65;;;5.10;66.80;;;;;;2071100;28;20030;-82
2021/04/09 01:54:17;;;;;;;7.78;4.93;;;5.10;66.80;;;;;;2079416;28;20045;-81
2021/04/09 01:55:19;;;;;;;6.45;4.85;;;5.10;66.90;;;;;;2080698;28;20037;-82
2021/04/09 01:56:20;;;;;;;7.00;4.53;;;5.10;66.80;;;;;;2087751;28;20036;-82
2021/04/09 01:57:24;;;;;;;8.10;5.28;;;5.10;66.90;;;;;;2072749;28;20537;-83
2021/04/09 01:58:27;;;;;;;8.57;4.65;;;5.20;67.00;;;;;;2072505;28;20088;-83
2021/04/09 01:59:29;;;;;;;7.82;5.20;;;5.10;67.00;;;;;;2087871;28;20055;-83
2021/04/09 02:00:31;;;;;;;8.93;5.35;;;5.10;67.60;;;;;;2080454;28;20021;-83
2021/04/09 02:01:36;;;;;;;8.77;5.28;;;5.10;67.10;;;;;;2074340;28;20075;-83
2021/04/09 02:02:38;;;;;;;7.90;4.90;;;5.10;67.10;;;;;;2065449;28;20019;-83
2021/04/09 02:03:47;;;;;;;8.30;4.85;;;5.10;67.20;;;;;;2071236;28;20124;-83
2021/04/09 02:04:50;;;;;;;9.30;4.78;;;5.10;67.20;;;;;;2073639;28;20369;-83
2021/04/09 02:05:52;;;;;;;8.02;4.88;;;5.10;67.20;;;;;;2066293;28;20022;-83
2021/04/09 02:06:54;;;;;;;7.53;5.35;;;5.10;67.90;;;;;;2072329;28;20511;-83
2021/04/09 02:07:58;;;;;;;9.43;5.30;;;5.10;67.30;;;;;;2064107;28;20034;-84
2021/04/09 02:08:59;;;;;;;7.45;4.60;;;5.10;67.30;;;;;;2073092;28;20038;-84
2021/04/09 02:10:04;;;;;;;8.10;4.72;;;5.10;67.40;;;;;;2071199;28;20026;-84
2021/04/09 02:11:05;;;;;;;7.07;4.70;;;5.00;67.40;;;;;;2067187;28;20061;-83
2021/04/09 02:12:06;;;;;;;9.20;4.95;;;5.10;67.40;;;;;;2064427;28;20034;-83
2021/04/09 02:13:08;;;;;;;8.18;5.10;;;5.10;67.50;;;;;;2056654;28;20070;-83
2021/04/09 02:14:13;;;;;;;8.43;4.88;;;5.10;67.60;;;;;;2064398;28;20158;-83
2021/04/09 02:15:20;;;;;;;7.25;4.65;;;5.00;67.50;;;;;;2064657;28;20034;-82
2021/04/09 02:16:22;;;;;;;8.13;4.72;;;5.10;67.80;;;;;;2081623;28;20383;-83
2021/04/09 02:17:23;;;;;;;8.00;4.70;;;5.00;67.50;;;;;;2072317;28;20022;-83
2021/04/09 02:18:25;;;;;;;8.88;5.13;;;5.00;67.50;;;;;;2061138;28;20046;-83
2021/04/09 02:19:26;;;;;;;7.93;4.78;;;5.00;67.60;;;;;;2064691;28;20031;-82
2021/04/09 02:20:26;;;;;;;9.40;5.00;;;5.00;67.60;;;;;;2064461;28;20428;-83
2021/04/09 02:21:27;;;;;;;8.48;4.45;;;5.00;67.60;;;;;;2064327;28;20027;-83
2021/04/09 02:22:28;;;;;;;7.03;4.82;;;5.00;67.60;;;;;;2064147;28;20023;-83
2021/04/09 02:23:30;;;;;;;7.60;5.07;;;5.10;67.80;;;;;;2072147;28;20022;-83
2021/04/09 02:24:31;;;;;;;9.18;5.13;;;5.00;67.70;;;;;;2063777;28;20620;-83
2021/04/09 02:25:31;;;;;;;8.50;4.97;;;5.00;67.70;;;;;;2072635;28;20547;-82
2021/04/09 02:26:32;;;;;;;8.63;5.28;;;5.00;67.70;;;;;;2076868;28;20025;-83
2021/04/09 02:27:34;;;;;;;7.18;4.80;;;5.00;67.70;;;;;;2079743;28;20462;-83
2021/04/09 02:28:35;;;;;;;8.43;5.60;;;5.00;67.80;;;;;;2064286;28;20034;-83
2021/04/09 02:29:35;;;;;;;7.90;4.63;;;5.00;67.80;;;;;;2072268;28;20036;-83
2021/04/09 02:30:36;;;;;;;8.40;5.45;;;5.00;67.80;;;;;;2088827;28;20029;-83
2021/04/09 02:31:39;;;;;;;9.52;5.72;;;5.00;68.40;;;;;;2071294;28;20037;-83
2021/04/09 02:32:40;;;;;;;8.07;5.05;;;5.00;67.80;;;;;;2072683;28;20096;-83
2021/04/09 02:33:42;;;;;;;8.75;5.07;;;5.00;68.00;;;;;;2056163;28;20034;-83
2021/04/09 02:34:42;;;;;;;8.13;4.70;;;5.00;67.90;;;;;;2064594;28;20045;-82
2021/04/09 02:35:43;;;;;;;7.20;4.80;;;5.00;68.50;;;;;;2072443;28;20037;-83
2021/04/09 02:36:44;;;;;;;7.72;5.28;;;5.00;67.90;;;;;;2064003;28;20073;-83
2021/04/09 02:37:49;;;;;;;7.55;4.80;;;5.00;67.90;;;;;;2063959;28;20026;-83
2021/04/09 02:39:11;;;;;;;7.13;5.07;;;5.00;67.90;;;;;;2073292;28;20041;-82
2021/04/09 02:40:14;;;;;;;8.57;4.97;;;5.00;67.90;;;;;;2083632;28;20025;-82
2021/04/09 02:41:18;;;;;;;8.32;5.07;;;5.00;67.90;;;;;;2085383;28;20024;-82
2021/04/09 02:42:19;;;;;;;8.68;4.70;;;5.00;67.90;;;;;;2080103;28;20028;-82
2021/04/09 02:43:19;;;;;;;8.63;5.18;;;5.00;68.00;;;;;;2072247;28;20026;-82
2021/04/09 02:44:20;;;;;;;7.20;4.68;;;5.00;68.00;;;;;;2071992;28;20065;-82
2021/04/09 02:45:24;;;;;;;7.43;4.88;;;5.10;68.10;;;;;;2072406;28;20037;-83
2021/04/09 02:46:57;;;;;;;8.60;5.15;;;5.00;68.10;;;;;;2070365;28;20384;-82
2021/04/09 02:48:01;;;;;;;7.47;4.63;;;5.00;68.10;;;;;;2084802;28;20475;-83
2021/04/09 02:49:13;;;;;;;7.82;4.95;;;5.00;68.10;;;;;;2086002;28;20480;-82
2021/04/09 02:50:40;;;;;;;7.72;4.95;;;5.00;68.10;;;;;;2080596;28;20076;-82
2021/04/09 02:51:43;;;;;;;7.35;4.90;;;5.00;68.10;;;;;;2065238;28;20038;-83
2021/04/09 02:52:50;;;;;;;9.05;5.13;;;5.00;68.10;;;;;;2064409;28;20030;-83
2021/04/09 02:53:55;;;;;;;9.05;4.97;;;5.00;68.10;;;;;;2066305;28;20050;-82
2021/04/09 02:55:01;;;;;;;7.85;5.07;;;5.00;68.10;;;;;;2072730;28;20038;-82
2021/04/09 02:56:05;;;;;;;9.02;5.10;;;5.00;68.80;;;;;;2073083;28;20022;-83
2021/04/09 02:57:09;;;;;;;8.07;5.22;;;5.00;68.10;;;;;;2070508;28;20030;-82
2021/04/09 02:58:12;;;;;;;8.63;5.47;;;5.00;68.10;;;;;;2073952;28;20021;-82
2021/04/09 02:59:14;;;;;;;8.68;5.40;;;5.00;68.20;;;;;;2070823;28;20053;-82
2021/04/09 03:00:16;;;;;;;7.97;5.13;;;5.00;68.10;;;;;;2082135;28;20032;-82
2021/04/09 03:01:23;;;;;;;10.60;5.72;;;5.00;68.20;;;;;;2074679;28;20026;-83
2021/04/09 03:02:25;;;;;;;9.27;5.55;;;5.00;68.20;;;;;;2074701;28;20121;-82
2021/04/09 03:03:26;;;;;;;9.27;5.72;;;5.00;68.20;;;;;;2065424;28;20069;-83
2021/04/09 03:04:30;;;;;;;9.07;5.53;;;5.00;68.20;;;;;;2057480;28;20126;-82
2021/04/09 03:05:31;;;;;;;8.85;5.25;;;5.10;68.30;;;;;;2074267;28;20029;-83
2021/04/09 03:06:36;;;;;;;10.45;5.28;;;5.10;68.30;;;;;;2077667;28;20025;-82
2021/04/09 03:07:40;;;;;;;9.93;5.47;;;5.00;68.20;;;;;;2081929;28;20450;-83
2021/04/09 03:08:41;;;;;;;10.63;5.57;;;5.10;68.30;;;;;;2080008;28;20100;-83
2021/04/09 03:09:42;;;;;;;8.98;5.43;;;5.00;68.30;;;;;;2053380;28;20031;-83
2021/04/09 03:10:42;;;;;;;10.27;5.68;;;5.10;68.40;;;;;;2065844;28;20625;-83
2021/04/09 03:11:43;;;;;;;9.98;5.53;;;5.10;68.40;;;;;;2073727;28;20072;-82
2021/04/09 03:12:45;;;;;;;9.57;5.80;;;5.00;68.30;;;;;;2065448;28;20030;-83
2021/04/09 03:13:46;;;;;;;9.77;5.63;;;5.10;68.40;;;;;;2072573;28;20034;-82
2021/04/09 03:14:51;;;;;;;8.65;5.38;;;5.00;68.40;;;;;;2081318;28;20065;-82
2021/04/09 03:15:56;;;;;;;11.07;6.03;;;5.10;68.40;;;;;;2090072;28;20025;-82
2021/04/09 03:17:03;;;;;;;8.90;5.00;;;5.10;68.40;;;;;;2088970;28;20498;-82
2021/04/09 03:18:08;;;;;;;9.57;5.25;;;5.10;68.50;;;;;;2082001;28;20101;-82
2021/04/09 03:19:10;;;;;;;9.60;5.50;;;5.00;68.40;;;;;;2090235;28;20042;-82
2021/04/09 03:20:11;;;;;;;10.02;5.90;;;5.00;68.50;;;;;;2057758;28;20125;-83
2021/04/09 03:21:12;;;;;;;9.32;5.70;;;5.10;68.60;;;;;;2065620;28;20085;-83
2021/04/09 03:22:13;;;;;;;9.05;5.70;;;5.10;68.60;;;;;;2073548;28;20100;-82
2021/04/09 03:23:13;;;;;;;8.80;5.78;;;5.10;68.60;;;;;;2065154;28;20058;-82
2021/04/09 03:24:14;;;;;;;9.55;5.82;;;5.10;68.80;;;;;;2072197;28;20027;-82
2021/04/09 03:25:15;;;;;;;9.27;5.82;;;5.10;68.70;;;;;;2083093;28;20129;-82
2021/04/09 03:26:15;;;;;;;9.57;5.60;;;5.10;68.70;;;;;;2085009;28;20096;-82
2021/04/09 03:27:16;;;;;;;10.13;6.10;;;5.10;68.70;;;;;;2077925;28;20057;-82
2021/04/09 03:28:17;;;;;;;9.80;6.13;;;5.10;68.80;;;;;;2089480;28;20276;-82
2021/04/09 03:29:17;;;;;;;9.88;5.75;;;5.10;68.80;;;;;;2065643;28;20575;-83
2021/04/09 03:30:20;;;;;;;9.82;5.93;;;5.10;68.80;;;;;;2066068;28;20488;-82
2021/04/09 03:31:21;;;;;;;11.13;6.15;;;5.10;68.80;;;;;;2076427;28;20427;-82
2021/04/09 03:32:22;;;;;;;10.23;5.70;;;5.10;68.80;;;;;;2065131;28;20036;-82
2021/04/09 03:33:26;;;;;;;11.18;5.90;;;5.10;68.80;;;;;;2082277;28;20029;-82
2021/04/09 03:34:27;;;;;;;9.65;5.78;;;5.10;68.80;;;;;;2090362;28;20048;-82
2021/04/09 03:35:28;;;;;;;10.02;5.90;;;5.10;69.50;;;;;;2083620;28;20029;-82
2021/04/09 03:36:28;;;;;;;10.90;6.10;;;5.10;68.80;;;;;;2071113;28;20046;-82
2021/04/09 03:37:29;;;;;;;9.13;5.90;;;5.10;68.90;;;;;;2079099;28;20038;-82
2021/04/09 03:38:29;;;;;;;10.43;6.03;;;5.10;68.90;;;;;;2082434;28;20029;-83
2021/04/09 03:39:30;;;;;;;9.52;5.30;;;5.10;68.90;;;;;;2073365;28;20045;-82
2021/04/09 03:40:31;;;;;;;10.30;5.90;;;5.10;68.90;;;;;;2081265;28;20049;-82
2021/04/09 03:41:31;;;;;;;10.80;6.15;;;5.10;68.90;;;;;;2080953;28;20092;-82
2021/04/09 03:42:32;;;;;;;10.05;6.20;;;5.10;68.90;;;;;;2058647;28;20027;-82
2021/04/09 03:43:33;;;;;;;9.52;6.00;;;5.00;68.80;;;;;;2057558;28;20172;-81
2021/04/09 03:44:34;;;;;;;10.48;6.00;;;5.10;68.90;;;;;;2074014;28;20022;-82
2021/04/09 03:45:34;;;;;;;9.68;6.25;;;5.10;68.90;;;;;;2074026;28;20036;-82
2021/04/09 03:46:35;;;;;;;10.48;6.47;;;5.10;68.90;;;;;;2064753;28;20126;-82
2021/04/09 03:47:36;;;;;;;11.25;6.25;;;5.10;69.00;;;;;;2073408;28;20040;-82
2021/04/09 03:48:37;;;;;;;10.30;6.30;;;5.10;69.00;;;;;;2073423;28;20566;-82
2021/04/09 03:49:37;;;;;;;9.60;5.93;;;5.10;69.00;;;;;;2067076;28;20038;-82
2021/04/09 03:50:38;;;;;;;10.13;6.20;;;5.00;68.90;;;;;;2064711;28;20033;-82
2021/04/09 03:51:38;;;;;;;10.10;5.68;;;5.10;69.00;;;;;;2065635;28;20030;-82
2021/04/09 03:52:39;;;;;;;11.00;6.05;;;5.10;69.00;;;;;;2066043;28;20389;-82
2021/04/09 03:53:40;;;;;;;10.98;6.00;;;5.10;69.10;;;;;;2078847;28;20034;-82
2021/04/09 03:54:40;;;;;;;10.65;5.80;;;5.10;69.10;;;;;;2080929;28;20068;-82
2021/04/09 03:55:41;;;;;;;10.75;6.07;;;5.10;69.20;;;;;;2082990;28;20049;-82
2021/04/09 03:56:42;;;;;;;9.63;5.70;;;5.10;69.20;;;;;;2089844;28;20033;-82
2021/04/09 03:57:44;;;;;;;10.38;6.07;;;5.00;69.20;;;;;;2072719;28;20030;-83
2021/04/09 03:58:45;;;;;;;9.60;5.88;;;5.00;69.20;;;;;;2071005;28;20023;-82
2021/04/09 03:59:45;;;;;;;9.48;5.63;;;5.00;69.20;;;;;;2069092;28;20486;-82
2021/04/09 04:00:46;;;;;;;9.38;5.50;;;5.10;69.30;;;;;;2073422;28;20459;-82
2021/04/09 04:01:47;;;;;;;9.90;5.53;;;5.00;69.30;;;;;;2073501;28;20120;-82
2021/04/09 04:02:49;;;;;;;10.02;5.60;;;5.00;69.30;;;;;;2073459;28;20424;-82
2021/04/09 04:03:49;;;;;;;8.68;5.32;;;5.00;69.30;;;;;;2067343;28;20498;-82
2021/04/09 04:04:50;;;;;;;9.05;5.32;;;5.00;69.30;;;;;;2064807;28;20061;-82
2021/04/09 04:05:51;;;;;;;9.68;5.50;;;5.00;69.30;;;;;;2072617;28;20034;-82
2021/04/09 04:06:52;;;;;;;8.55;5.22;;;5.00;69.40;;;;;;2072136;28;20034;-82
2021/04/09 04:07:53;;;;;;;8.95;4.97;;;5.00;69.40;;;;;;2070046;28;20109;-82
2021/04/09 04:08:53;;;;;;;8.45;4.90;;;5.00;69.40;;;;;;2076023;28;20369;-82
2021/04/09 04:09:54;;;;;;;10.48;5.47;;;5.00;69.50;;;;;;2065033;28;20497;-83
2021/04/09 04:10:54;;;;;;;8.57;5.50;;;5.00;69.50;;;;;;2064667;28;20503;-83
2021/04/09 04:11:55;;;;;;;8.90;5.53;;;5.00;69.40;;;;;;2073745;28;20509;-83
2021/04/09 04:12:57;;;;;;;10.02;5.25;;;5.00;69.50;;;;;;2077231;28;20480;-82
2021/04/09 04:13:57;;;;;;;9.20;5.57;;;5.00;69.50;;;;;;2073256;28;20057;-82
2021/04/09 04:14:58;;;;;;;9.25;5.60;;;5.00;69.50;;;;;;2065100;28;20400;-82
2021/04/09 04:15:59;;;;;;;8.38;5.15;;;5.00;69.50;;;;;;2081495;28;20104;-82
2021/04/09 04:17:00;;;;;;;8.00;5.20;;;5.00;69.50;;;;;;2087807;28;20491;-82
2021/04/09 04:18:00;;;;;;;9.02;5.35;;;5.00;69.50;;;;;;2073147;28;20055;-83
2021/04/09 04:19:01;;;;;;;8.60;4.93;;;5.00;69.60;;;;;;2069893;28;20038;-83
2021/04/09 04:20:03;;;;;;;9.27;4.95;;;5.00;69.50;;;;;;2073327;28;20034;-83
2021/04/09 04:21:04;;;;;;;8.32;5.20;;;5.00;69.50;;;;;;2081426;28;20022;-83
2021/04/09 04:22:05;;;;;;;8.30;5.35;;;5.00;69.50;;;;;;2082227;28;20029;-83
2021/04/09 04:23:05;;;;;;;8.32;5.32;;;5.00;69.50;;;;;;2072279;28;20112;-83
2021/04/09 04:24:07;;;;;;;8.38;4.95;;;5.00;69.50;;;;;;2077391;28;20041;-82
2021/04/09 04:25:08;;;;;;;8.90;5.40;;;5.00;69.60;;;;;;2081525;28;20414;-83
2021/04/09 04:26:09;;;;;;;9.63;5.05;;;5.00;69.60;;;;;;2082770;28;20036;-82
2021/04/09 04:27:09;;;;;;;8.75;5.50;;;5.00;69.60;;;;;;2084543;28;20028;-83
2021/04/09 04:28:10;;;;;;;9.20;5.15;;;5.00;69.60;;;;;;2085106;28;20455;-82
2021/04/09 04:29:11;;;;;;;9.55;5.25;;;5.00;69.60;;;;;;2078105;28;20094;-82
2021/04/09 04:30:12;;;;;;;8.43;4.68;;;5.00;70.20;;;;;;2073068;28;20030;-82
2021/04/09 04:31:14;;;;;;;9.23;5.10;;;5.00;69.60;;;;;;2072912;28;20488;-82
2021/04/09 04:32:15;;;;;;;7.43;4.85;;;5.00;69.70;;;;;;2064978;28;20065;-82
2021/04/09 04:33:19;;;;;;;8.80;5.25;;;5.00;69.60;;;;;;2079330;28;20034;-82
2021/04/09 04:34:20;;;;;;;8.93;5.20;;;5.00;69.70;;;;;;2081216;28;20542;-82
2021/04/09 04:35:20;;;;;;;8.70;4.88;;;5.00;69.70;;;;;;2072946;28;20113;-82
2021/04/09 04:36:22;;;;;;;10.07;5.25;;;5.00;69.70;;;;;;2080379;28;20400;-82
2021/04/09 04:37:23;;;;;;;8.73;5.22;;;5.00;69.60;;;;;;2088646;28;20064;-82
2021/04/09 04:38:23;;;;;;;9.02;5.03;;;5.00;69.70;;;;;;2081170;28;20022;-81
2021/04/09 04:39:24;;;;;;;8.55;5.43;;;5.00;69.70;;;;;;2072884;28;20029;-83
2021/04/09 04:40:26;;;;;;;8.48;5.35;;;5.00;69.70;;;;;;2081259;28;20076;-82
2021/04/09 04:41:26;;;;;;;7.30;4.40;;;5.00;69.80;;;;;;2080698;28;20030;-82
2021/04/09 04:42:27;;;;;;;9.20;5.03;;;5.00;69.80;;;;;;2074732;28;20061;-82
2021/04/09 04:43:27;;;;;;;8.48;4.57;;;5.00;69.80;;;;;;2072420;28;20026;-83
2021/04/09 04:44:28;;;;;;;7.28;4.72;;;5.00;69.80;;;;;;2072809;28;20022;-82
2021/04/09 04:45:29;;;;;;;8.20;4.90;;;5.00;69.80;;;;;;2079547;28;20041;-82
2021/04/09 04:46:29;;;;;;;8.07;4.97;;;5.00;69.80;;;;;;2074462;28;20033;-81
2021/04/09 04:47:30;;;;;;;8.32;4.95;;;5.00;69.80;;;;;;2071808;28;20030;-82
2021/04/09 04:48:31;;;;;;;8.75;4.78;;;5.00;69.90;;;;;;2069584;28;20105;-82
2021/04/09 04:49:32;;;;;;;8.85;5.10;;;5.00;69.90;;;;;;2064582;28;20037;-82
2021/04/09 04:50:33;;;;;;;7.63;5.05;;;5.00;69.80;;;;;;2066683;28;20531;-82
2021/04/09 04:51:36;;;;;;;7.80;4.78;;;5.00;69.80;;;;;;2080756;28;20512;-82
2021/04/09 04:52:37;;;;;;;8.20;4.68;;;5.00;69.90;;;;;;2089394;28;20479;-82
2021/04/09 04:53:38;;;;;;;9.63;5.40;;;5.00;69.90;;;;;;2080443;28;20128;-82
2021/04/09 04:54:39;;;;;;;8.35;4.80;;;5.00;69.90;;;;;;2073630;28;20064;-82
2021/04/09 04:55:39;;;;;;;8.40;5.07;;;5.00;69.90;;;;;;2081859;28;20080;-82
2021/04/09 04:56:40;;;;;;;7.00;4.65;;;5.00;69.90;;;;;;2089905;28;20055;-82
2021/04/09 04:57:41;;;;;;;6.95;4.38;;;5.00;69.90;;;;;;2088253;28;20044;-82
2021/04/09 04:58:41;;;;;;;8.80;5.55;;;5.00;69.90;;;;;;2071764;28;20061;-82
2021/04/09 04:59:42;;;;;;;7.72;4.60;;;5.00;69.90;;;;;;2068810;28;20034;-82
2021/04/09 05:00:42;;;;;;;8.35;5.13;;;5.00;70.30;;;;;;2072168;28;20096;-82
2021/04/09 05:01:43;;;;;;;8.45;5.15;;;5.00;69.90;;;;;;2072720;28;20038;-82
2021/04/09 05:02:44;;;;;;;8.73;5.40;;;5.00;69.80;;;;;;2072831;28;20120;-82
2021/04/09 05:03:45;;;;;;;7.97;5.18;;;5.00;69.90;;;;;;2064263;28;20073;-82
2021/04/09 05:04:45;;;;;;;8.88;5.40;;;5.00;69.90;;;;;;2073265;28;20040;-82
2021/04/09 05:05:46;;;;;;;7.90;4.82;;;5.00;69.90;;;;;;2072467;28;20018;-82
2021/04/09 05:06:47;;;;;;;9.35;5.10;;;5.00;69.90;;;;;;2080172;28;20033;-82
2021/04/09 05:07:48;;;;;;;7.28;4.68;;;5.00;69.90;;;;;;2080712;28;20025;-82
2021/04/09 05:08:49;;;;;;;7.80;4.95;;;5.00;69.90;;;;;;2072822;28;20048;-82
2021/04/09 05:09:49;;;;;;;7.82;4.93;;;5.00;70.00;;;;;;2078220;28;20112;-82
2021/04/09 05:10:50;;;;;;;8.52;5.28;;;5.00;70.00;;;;;;2079358;28;20030;-82
2021/04/09 05:11:50;;;;;;;7.70;4.75;;;5.00;70.10;;;;;;2074664;28;20112;-82
2021/04/09 05:12:51;;;;;;;9.07;4.85;;;5.00;70.10;;;;;;2064493;28;20038;-82
2021/04/09 05:13:52;;;;;;;8.02;4.45;;;5.00;70.70;;;;;;2072770;28;20120;-82
2021/04/09 05:14:53;;;;;;;7.85;5.10;;;5.00;70.10;;;;;;2078464;28;20037;-82
2021/04/09 05:15:54;;;;;;;7.53;4.70;;;4.90;70.10;;;;;;2080806;28;20068;-82
2021/04/09 05:16:56;;;;;;;7.43;4.68;;;5.00;70.10;;;;;;2080721;28;20104;-82
2021/04/09 05:17:56;;;;;;;8.10;5.20;;;5.00;70.20;;;;;;2065946;28;20499;-82
2021/04/09 05:18:57;;;;;;;9.77;5.70;;;5.00;70.20;;;;;;2081099;28;20037;-82
2021/04/09 05:19:58;;;;;;;9.43;5.68;;;5.00;70.30;;;;;;2087626;28;20033;-82
2021/04/09 05:20:58;;;;;;;8.82;5.32;;;5.00;70.30;;;;;;2072343;28;20134;-83
2021/04/09 05:21:59;;;;;;;8.40;5.47;;;5.00;70.20;;;;;;2064114;28;20089;-82
2021/04/09 05:23:00;;;;;;;8.02;5.38;;;5.00;70.30;;;;;;2072428;28;20026;-82
2021/04/09 05:24:00;;;;;;;8.13;5.10;;;5.00;70.20;;;;;;2072067;28;20034;-82
2021/04/09 05:25:02;;;;;;;10.10;5.22;;;5.00;70.20;;;;;;2056628;28;20508;-82
2021/04/09 05:26:03;;;;;;;8.65;5.18;;;5.00;70.20;;;;;;2066758;28;20046;-82
2021/04/09 05:27:04;;;;;;;7.07;4.85;;;5.00;70.30;;;;;;2080679;28;20096;-82
2021/04/09 05:28:05;;;;;;;9.60;5.00;;;5.00;70.30;;;;;;2072528;28;20034;-82
2021/04/09 05:29:06;;;;;;;7.68;5.10;;;5.00;70.30;;;;;;2078404;28;20029;-83